sensor_id;sensor_type;location;lat;lon;timestamp;P1;durP1;ratioP1;P2;durP2;ratioP2
59788;SDS011;47353;51.614;5.530;2022-09-09T00:04:15;4.22;;;2.40;;
59788;SDS011;47353;51.614;5.530;2022-09-09T00:09:29;3.95;;;2.70;;
59788;SDS011;47353;51.614;5.530;2022-09-09T00:12:01;5.47;;;2.65;;
59788;SDS011;47353;51.614;5.530;2022-09-09T00:17:11;3.08;;;2.40;;
59788;SDS011;47353;51.614;5.530;2022-09-09T00:19:46;3.47;;;2.75;;
59788;SDS011;47353;51.614;5.530;2022-09-09T00:22:24;3.58;;;2.60;;
59788;SDS011;47353;51.614;5.530;2022-09-09T00:24:53;3.58;;;2.55;;
59788;SDS011;47353;51.614;5.530;2022-09-09T00:35:30;3.22;;;2.65;;
59788;SDS011;47353;51.614;5.530;2022-09-09T00:43:35;3.47;;;3.17;;
59788;SDS011;47353;51.614;5.530;2022-09-09T00:48:35;4.07;;;2.90;;
59788;SDS011;47353;51.614;5.530;2022-09-09T00:51:25;3.30;;;2.90;;
59788;SDS011;47353;51.614;5.530;2022-09-09T00:54:05;5.40;;;2.80;;
59788;SDS011;47353;51.614;5.530;2022-09-09T00:59:47;5.13;;;2.92;;
59788;SDS011;47353;51.614;5.530;2022-09-09T01:02:25;4.32;;;2.90;;
59788;SDS011;47353;51.614;5.530;2022-09-09T01:04:53;4.53;;;2.88;;
59788;SDS011;47353;51.614;5.530;2022-09-09T01:07:19;6.60;;;2.90;;
59788;SDS011;47353;51.614;5.530;2022-09-09T01:09:53;3.63;;;2.92;;
59788;SDS011;47353;51.614;5.530;2022-09-09T01:12:42;6.60;;;2.72;;
59788;SDS011;47353;51.614;5.530;2022-09-09T01:15:12;5.32;;;2.63;;
59788;SDS011;47353;51.614;5.530;2022-09-09T01:20:12;4.90;;;2.25;;
59788;SDS011;47353;51.614;5.530;2022-09-09T01:25:56;4.07;;;2.30;;
59788;SDS011;47353;51.614;5.530;2022-09-09T01:28:33;4.93;;;2.80;;
59788;SDS011;47353;51.614;5.530;2022-09-09T01:31:02;4.68;;;2.60;;
59788;SDS011;47353;51.614;5.530;2022-09-09T01:33:29;3.20;;;2.50;;
59788;SDS011;47353;51.614;5.530;2022-09-09T01:38:22;4.68;;;2.60;;
59788;SDS011;47353;51.614;5.530;2022-09-09T01:40:49;6.97;;;2.40;;
59788;SDS011;47353;51.614;5.530;2022-09-09T01:43:17;5.40;;;2.38;;
59788;SDS011;47353;51.614;5.530;2022-09-09T01:45:44;4.20;;;2.47;;
59788;SDS011;47353;51.614;5.530;2022-09-09T01:48:14;4.13;;;2.47;;
59788;SDS011;47353;51.614;5.530;2022-09-09T01:50:39;5.90;;;2.65;;
59788;SDS011;47353;51.614;5.530;2022-09-09T01:53:05;4.15;;;2.47;;
59788;SDS011;47353;51.614;5.530;2022-09-09T01:55:41;5.47;;;2.67;;
59788;SDS011;47353;51.614;5.530;2022-09-09T02:03:52;4.03;;;2.72;;
59788;SDS011;47353;51.614;5.530;2022-09-09T02:09:10;3.90;;;2.22;;
59788;SDS011;47353;51.614;5.530;2022-09-09T02:11:37;5.50;;;2.90;;
59788;SDS011;47353;51.614;5.530;2022-09-09T02:14:10;5.32;;;2.92;;
59788;SDS011;47353;51.614;5.530;2022-09-09T02:16:40;8.10;;;3.13;;
59788;SDS011;47353;51.614;5.530;2022-09-09T02:21:37;5.00;;;2.97;;
59788;SDS011;47353;51.614;5.530;2022-09-09T02:24:06;5.88;;;3.10;;
59788;SDS011;47353;51.614;5.530;2022-09-09T02:26:35;7.45;;;3.38;;
59788;SDS011;47353;51.614;5.530;2022-09-09T02:29:06;7.82;;;3.13;;
59788;SDS011;47353;51.614;5.530;2022-09-09T02:31:37;5.82;;;2.97;;
59788;SDS011;47353;51.614;5.530;2022-09-09T02:34:04;5.03;;;2.97;;
59788;SDS011;47353;51.614;5.530;2022-09-09T02:36:33;8.00;;;3.35;;
59788;SDS011;47353;51.614;5.530;2022-09-09T02:39:01;4.90;;;2.88;;
59788;SDS011;47353;51.614;5.530;2022-09-09T02:41:33;5.15;;;3.25;;
59788;SDS011;47353;51.614;5.530;2022-09-09T02:44:00;7.10;;;3.58;;
59788;SDS011;47353;51.614;5.530;2022-09-09T02:49:08;6.95;;;3.30;;
59788;SDS011;47353;51.614;5.530;2022-09-09T02:51:40;4.82;;;3.13;;
59788;SDS011;47353;51.614;5.530;2022-09-09T02:56:54;7.85;;;3.13;;
59788;SDS011;47353;51.614;5.530;2022-09-09T02:59:19;5.25;;;3.25;;
59788;SDS011;47353;51.614;5.530;2022-09-09T03:01:46;8.35;;;3.50;;
59788;SDS011;47353;51.614;5.530;2022-09-09T03:04:12;6.43;;;3.20;;
59788;SDS011;47353;51.614;5.530;2022-09-09T03:06:37;7.97;;;3.17;;
59788;SDS011;47353;51.614;5.530;2022-09-09T03:09:03;5.18;;;3.03;;
59788;SDS011;47353;51.614;5.530;2022-09-09T03:11:28;5.85;;;3.10;;
59788;SDS011;47353;51.614;5.530;2022-09-09T03:13:54;9.45;;;3.40;;
59788;SDS011;47353;51.614;5.530;2022-09-09T03:16:21;8.88;;;3.80;;
59788;SDS011;47353;51.614;5.530;2022-09-09T03:18:47;5.68;;;3.53;;
59788;SDS011;47353;51.614;5.530;2022-09-09T03:21:12;7.00;;;3.47;;
59788;SDS011;47353;51.614;5.530;2022-09-09T03:23:38;7.35;;;3.75;;
59788;SDS011;47353;51.614;5.530;2022-09-09T03:26:04;9.68;;;3.67;;
59788;SDS011;47353;51.614;5.530;2022-09-09T03:28:29;4.65;;;3.58;;
59788;SDS011;47353;51.614;5.530;2022-09-09T03:30:58;7.30;;;3.65;;
59788;SDS011;47353;51.614;5.530;2022-09-09T03:33:24;12.57;;;4.18;;
59788;SDS011;47353;51.614;5.530;2022-09-09T03:35:50;7.28;;;3.13;;
59788;SDS011;47353;51.614;5.530;2022-09-09T03:38:15;6.47;;;3.10;;
59788;SDS011;47353;51.614;5.530;2022-09-09T03:40:48;7.32;;;3.38;;
59788;SDS011;47353;51.614;5.530;2022-09-09T03:45:44;7.28;;;3.35;;
59788;SDS011;47353;51.614;5.530;2022-09-09T03:48:12;5.63;;;3.42;;
59788;SDS011;47353;51.614;5.530;2022-09-09T03:50:38;5.72;;;3.30;;
59788;SDS011;47353;51.614;5.530;2022-09-09T03:53:03;6.68;;;3.10;;
59788;SDS011;47353;51.614;5.530;2022-09-09T03:55:31;11.30;;;3.60;;
59788;SDS011;47353;51.614;5.530;2022-09-09T03:57:57;7.68;;;3.42;;
59788;SDS011;47353;51.614;5.530;2022-09-09T04:00:22;8.73;;;3.50;;
59788;SDS011;47353;51.614;5.530;2022-09-09T04:02:48;10.95;;;3.20;;
59788;SDS011;47353;51.614;5.530;2022-09-09T04:05:14;5.88;;;2.85;;
59788;SDS011;47353;51.614;5.530;2022-09-09T04:07:40;7.07;;;3.03;;
59788;SDS011;47353;51.614;5.530;2022-09-09T04:10:06;8.70;;;3.50;;
59788;SDS011;47353;51.614;5.530;2022-09-09T04:12:33;5.05;;;3.08;;
59788;SDS011;47353;51.614;5.530;2022-09-09T04:14:59;8.88;;;3.67;;
59788;SDS011;47353;51.614;5.530;2022-09-09T04:17:25;6.32;;;3.35;;
59788;SDS011;47353;51.614;5.530;2022-09-09T04:19:50;7.35;;;3.88;;
59788;SDS011;47353;51.614;5.530;2022-09-09T04:22:15;8.63;;;3.38;;
59788;SDS011;47353;51.614;5.530;2022-09-09T04:24:41;7.07;;;3.47;;
59788;SDS011;47353;51.614;5.530;2022-09-09T04:27:06;7.20;;;3.65;;
59788;SDS011;47353;51.614;5.530;2022-09-09T04:29:32;7.72;;;3.67;;
59788;SDS011;47353;51.614;5.530;2022-09-09T04:31:58;7.13;;;3.25;;
59788;SDS011;47353;51.614;5.530;2022-09-09T04:34:23;7.40;;;3.53;;
59788;SDS011;47353;51.614;5.530;2022-09-09T04:36:49;9.98;;;3.50;;
59788;SDS011;47353;51.614;5.530;2022-09-09T04:39:16;9.02;;;3.33;;
59788;SDS011;47353;51.614;5.530;2022-09-09T04:41:42;7.68;;;3.65;;
59788;SDS011;47353;51.614;5.530;2022-09-09T04:44:07;10.02;;;4.15;;
59788;SDS011;47353;51.614;5.530;2022-09-09T04:46:33;5.68;;;3.30;;
59788;SDS011;47353;51.614;5.530;2022-09-09T04:48:59;9.50;;;3.72;;
59788;SDS011;47353;51.614;5.530;2022-09-09T04:51:24;7.93;;;3.63;;
59788;SDS011;47353;51.614;5.530;2022-09-09T04:53:50;10.02;;;3.83;;
59788;SDS011;47353;51.614;5.530;2022-09-09T04:56:16;7.85;;;3.83;;
59788;SDS011;47353;51.614;5.530;2022-09-09T04:58:43;9.32;;;3.97;;
59788;SDS011;47353;51.614;5.530;2022-09-09T05:01:13;11.82;;;3.83;;
59788;SDS011;47353;51.614;5.530;2022-09-09T05:03:40;6.72;;;4.00;;
59788;SDS011;47353;51.614;5.530;2022-09-09T05:06:09;9.15;;;4.00;;
59788;SDS011;47353;51.614;5.530;2022-09-09T05:08:36;7.30;;;3.22;;
59788;SDS011;47353;51.614;5.530;2022-09-09T05:11:03;10.98;;;3.75;;
59788;SDS011;47353;51.614;5.530;2022-09-09T05:13:29;10.65;;;3.38;;
59788;SDS011;47353;51.614;5.530;2022-09-09T05:15:57;8.07;;;3.03;;
59788;SDS011;47353;51.614;5.530;2022-09-09T05:18:22;12.85;;;3.22;;
59788;SDS011;47353;51.614;5.530;2022-09-09T05:20:48;11.02;;;3.50;;
59788;SDS011;47353;51.614;5.530;2022-09-09T05:23:16;8.25;;;3.38;;
59788;SDS011;47353;51.614;5.530;2022-09-09T05:25:42;7.70;;;3.50;;
59788;SDS011;47353;51.614;5.530;2022-09-09T05:28:07;11.48;;;4.18;;
59788;SDS011;47353;51.614;5.530;2022-09-09T05:30:32;9.70;;;4.20;;
59788;SDS011;47353;51.614;5.530;2022-09-09T05:32:59;7.00;;;3.58;;
59788;SDS011;47353;51.614;5.530;2022-09-09T05:35:24;7.82;;;3.60;;
59788;SDS011;47353;51.614;5.530;2022-09-09T05:37:50;12.52;;;3.90;;
59788;SDS011;47353;51.614;5.530;2022-09-09T05:40:15;13.00;;;3.67;;
59788;SDS011;47353;51.614;5.530;2022-09-09T05:42:41;7.75;;;3.70;;
59788;SDS011;47353;51.614;5.530;2022-09-09T05:45:07;9.50;;;3.85;;
59788;SDS011;47353;51.614;5.530;2022-09-09T05:47:34;12.23;;;3.67;;
59788;SDS011;47353;51.614;5.530;2022-09-09T05:50:00;10.20;;;3.50;;
59788;SDS011;47353;51.614;5.530;2022-09-09T05:52:26;8.88;;;3.65;;
59788;SDS011;47353;51.614;5.530;2022-09-09T05:54:52;11.57;;;4.25;;
59788;SDS011;47353;51.614;5.530;2022-09-09T05:57:19;9.50;;;4.78;;
59788;SDS011;47353;51.614;5.530;2022-09-09T05:59:45;11.95;;;4.05;;
59788;SDS011;47353;51.614;5.530;2022-09-09T06:02:10;9.07;;;3.90;;
59788;SDS011;47353;51.614;5.530;2022-09-09T06:04:37;11.18;;;3.70;;
59788;SDS011;47353;51.614;5.530;2022-09-09T06:07:04;9.30;;;3.63;;
59788;SDS011;47353;51.614;5.530;2022-09-09T06:09:30;16.58;;;3.80;;
59788;SDS011;47353;51.614;5.530;2022-09-09T06:11:55;8.63;;;3.60;;
59788;SDS011;47353;51.614;5.530;2022-09-09T06:14:23;10.90;;;3.95;;
59788;SDS011;47353;51.614;5.530;2022-09-09T06:16:50;12.48;;;3.78;;
59788;SDS011;47353;51.614;5.530;2022-09-09T06:19:16;11.15;;;3.85;;
59788;SDS011;47353;51.614;5.530;2022-09-09T06:21:41;16.05;;;4.00;;
59788;SDS011;47353;51.614;5.530;2022-09-09T06:24:07;9.57;;;3.10;;
59788;SDS011;47353;51.614;5.530;2022-09-09T06:26:37;9.23;;;3.10;;
59788;SDS011;47353;51.614;5.530;2022-09-09T06:29:05;7.28;;;3.00;;
59788;SDS011;47353;51.614;5.530;2022-09-09T06:31:32;12.48;;;3.38;;
59788;SDS011;47353;51.614;5.530;2022-09-09T06:33:59;9.88;;;2.90;;
59788;SDS011;47353;51.614;5.530;2022-09-09T06:36:28;11.32;;;3.25;;
59788;SDS011;47353;51.614;5.530;2022-09-09T06:38:56;13.10;;;3.25;;
59788;SDS011;47353;51.614;5.530;2022-09-09T06:41:22;9.93;;;2.80;;
59788;SDS011;47353;51.614;5.530;2022-09-09T06:43:49;7.53;;;2.65;;
59788;SDS011;47353;51.614;5.530;2022-09-09T06:46:32;6.75;;;2.60;;
59788;SDS011;47353;51.614;5.530;2022-09-09T06:51:32;8.52;;;2.67;;
59788;SDS011;47353;51.614;5.530;2022-09-09T06:53:59;9.93;;;2.97;;
59788;SDS011;47353;51.614;5.530;2022-09-09T06:56:30;7.53;;;3.00;;
59788;SDS011;47353;51.614;5.530;2022-09-09T06:59:00;7.80;;;3.05;;
59788;SDS011;47353;51.614;5.530;2022-09-09T07:01:29;11.13;;;3.03;;
59788;SDS011;47353;51.614;5.530;2022-09-09T07:03:57;8.65;;;2.88;;
59788;SDS011;47353;51.614;5.530;2022-09-09T07:06:27;10.57;;;3.10;;
59788;SDS011;47353;51.614;5.530;2022-09-09T07:08:58;10.45;;;2.63;;
59788;SDS011;47353;51.614;5.530;2022-09-09T07:11:30;8.50;;;2.38;;
59788;SDS011;47353;51.614;5.530;2022-09-09T07:13:58;8.50;;;2.40;;
59788;SDS011;47353;51.614;5.530;2022-09-09T07:16:24;11.50;;;3.10;;
59788;SDS011;47353;51.614;5.530;2022-09-09T07:18:52;9.15;;;2.78;;
59788;SDS011;47353;51.614;5.530;2022-09-09T07:21:20;7.80;;;2.95;;
59788;SDS011;47353;51.614;5.530;2022-09-09T07:23:46;11.93;;;2.67;;
59788;SDS011;47353;51.614;5.530;2022-09-09T07:26:13;5.82;;;1.80;;
59788;SDS011;47353;51.614;5.530;2022-09-09T07:28:40;8.63;;;2.55;;
59788;SDS011;47353;51.614;5.530;2022-09-09T07:31:07;9.65;;;2.40;;
59788;SDS011;47353;51.614;5.530;2022-09-09T07:33:38;8.82;;;2.45;;
59788;SDS011;47353;51.614;5.530;2022-09-09T07:36:16;11.50;;;2.33;;
59788;SDS011;47353;51.614;5.530;2022-09-09T07:38:44;8.60;;;2.45;;
59788;SDS011;47353;51.614;5.530;2022-09-09T07:41:12;12.20;;;2.17;;
59788;SDS011;47353;51.614;5.530;2022-09-09T07:43:43;8.98;;;2.50;;
59788;SDS011;47353;51.614;5.530;2022-09-09T07:46:10;6.45;;;2.30;;
59788;SDS011;47353;51.614;5.530;2022-09-09T07:48:38;13.13;;;2.50;;
59788;SDS011;47353;51.614;5.530;2022-09-09T07:51:09;6.25;;;1.70;;
59788;SDS011;47353;51.614;5.530;2022-09-09T07:53:37;7.95;;;1.90;;
59788;SDS011;47353;51.614;5.530;2022-09-09T07:56:07;10.25;;;2.17;;
59788;SDS011;47353;51.614;5.530;2022-09-09T07:58:36;9.85;;;2.10;;
59788;SDS011;47353;51.614;5.530;2022-09-09T08:01:06;12.27;;;2.30;;
59788;SDS011;47353;51.614;5.530;2022-09-09T08:03:33;8.43;;;2.00;;
59788;SDS011;47353;51.614;5.530;2022-09-09T08:06:02;8.13;;;2.28;;
59788;SDS011;47353;51.614;5.530;2022-09-09T08:08:29;11.63;;;2.53;;
59788;SDS011;47353;51.614;5.530;2022-09-09T08:11:01;6.45;;;2.08;;
59788;SDS011;47353;51.614;5.530;2022-09-09T08:13:32;11.63;;;2.20;;
59788;SDS011;47353;51.614;5.530;2022-09-09T08:16:15;7.65;;;2.03;;
59788;SDS011;47353;51.614;5.530;2022-09-09T08:18:48;8.05;;;2.15;;
59788;SDS011;47353;51.614;5.530;2022-09-09T08:21:16;9.90;;;2.30;;
59788;SDS011;47353;51.614;5.530;2022-09-09T08:23:44;6.85;;;2.00;;
59788;SDS011;47353;51.614;5.530;2022-09-09T08:28:36;8.85;;;2.30;;
59788;SDS011;47353;51.614;5.530;2022-09-09T08:31:09;8.02;;;2.10;;
59788;SDS011;47353;51.614;5.530;2022-09-09T08:33:37;8.77;;;2.30;;
59788;SDS011;47353;51.614;5.530;2022-09-09T08:36:03;11.18;;;2.58;;
59788;SDS011;47353;51.614;5.530;2022-09-09T08:38:30;7.90;;;2.13;;
59788;SDS011;47353;51.614;5.530;2022-09-09T08:40:57;9.65;;;2.50;;
59788;SDS011;47353;51.614;5.530;2022-09-09T08:43:31;7.88;;;2.30;;
59788;SDS011;47353;51.614;5.530;2022-09-09T08:46:04;7.30;;;2.15;;
59788;SDS011;47353;51.614;5.530;2022-09-09T08:51:21;9.95;;;1.80;;
59788;SDS011;47353;51.614;5.530;2022-09-09T08:53:52;5.03;;;2.35;;
59788;SDS011;47353;51.614;5.530;2022-09-09T08:56:21;6.63;;;2.05;;
59788;SDS011;47353;51.614;5.530;2022-09-09T08:58:49;11.38;;;2.40;;
59788;SDS011;47353;51.614;5.530;2022-09-09T09:09:21;9.10;;;2.13;;
59788;SDS011;47353;51.614;5.530;2022-09-09T09:11:56;6.97;;;2.47;;
59788;SDS011;47353;51.614;5.530;2022-09-09T09:14:28;6.55;;;1.98;;
59788;SDS011;47353;51.614;5.530;2022-09-09T09:17:02;7.38;;;2.55;;
59788;SDS011;47353;51.614;5.530;2022-09-09T09:19:30;7.90;;;2.10;;
59788;SDS011;47353;51.614;5.530;2022-09-09T09:27:36;8.77;;;2.00;;
59788;SDS011;47353;51.614;5.530;2022-09-09T09:30:20;11.55;;;2.55;;
59788;SDS011;47353;51.614;5.530;2022-09-09T09:33:13;12.20;;;2.80;;
59788;SDS011;47353;51.614;5.530;2022-09-09T09:35:36;15.63;;;3.10;;
59788;SDS011;47353;51.614;5.530;2022-09-09T09:38:05;7.88;;;2.30;;
59788;SDS011;47353;51.614;5.530;2022-09-09T09:40:56;5.93;;;2.00;;
59788;SDS011;47353;51.614;5.530;2022-09-09T09:43:25;5.25;;;1.65;;
59788;SDS011;47353;51.614;5.530;2022-09-09T09:45:53;9.88;;;2.25;;
59788;SDS011;47353;51.614;5.530;2022-09-09T09:48:20;5.53;;;2.10;;
59788;SDS011;47353;51.614;5.530;2022-09-09T09:50:49;6.60;;;2.08;;
59788;SDS011;47353;51.614;5.530;2022-09-09T09:53:30;6.65;;;2.08;;
59788;SDS011;47353;51.614;5.530;2022-09-09T09:56:01;12.50;;;2.45;;
59788;SDS011;47353;51.614;5.530;2022-09-09T09:58:33;8.82;;;2.35;;
59788;SDS011;47353;51.614;5.530;2022-09-09T10:04:00;8.13;;;2.67;;
59788;SDS011;47353;51.614;5.530;2022-09-09T10:08:58;8.00;;;2.00;;
59788;SDS011;47353;51.614;5.530;2022-09-09T10:11:59;9.43;;;2.22;;
59788;SDS011;47353;51.614;5.530;2022-09-09T10:14:48;7.45;;;2.30;;
59788;SDS011;47353;51.614;5.530;2022-09-09T10:20:31;7.57;;;2.10;;
59788;SDS011;47353;51.614;5.530;2022-09-09T10:22:39;7.20;;;2.20;;
59788;SDS011;47353;51.614;5.530;2022-09-09T10:36:13;7.72;;;2.47;;
59788;SDS011;47353;51.614;5.530;2022-09-09T10:38:48;7.72;;;2.30;;
59788;SDS011;47353;51.614;5.530;2022-09-09T10:42:16;9.00;;;2.40;;
59788;SDS011;47353;51.614;5.530;2022-09-09T10:47:29;7.68;;;2.22;;
59788;SDS011;47353;51.614;5.530;2022-09-09T10:56:10;6.45;;;2.50;;
59788;SDS011;47353;51.614;5.530;2022-09-09T11:01:14;9.05;;;2.58;;
59788;SDS011;47353;51.614;5.530;2022-09-09T11:03:44;9.10;;;2.78;;
59788;SDS011;47353;51.614;5.530;2022-09-09T11:06:16;14.38;;;2.90;;
59788;SDS011;47353;51.614;5.530;2022-09-09T11:08:45;10.10;;;2.47;;
59788;SDS011;47353;51.614;5.530;2022-09-09T11:11:17;7.95;;;2.80;;
59788;SDS011;47353;51.614;5.530;2022-09-09T11:14:05;9.57;;;2.80;;
59788;SDS011;47353;51.614;5.530;2022-09-09T11:19:35;7.65;;;2.90;;
59788;SDS011;47353;51.614;5.530;2022-09-09T11:22:19;6.78;;;2.50;;
59788;SDS011;47353;51.614;5.530;2022-09-09T11:25:05;5.25;;;2.33;;
59788;SDS011;47353;51.614;5.530;2022-09-09T11:41:32;6.05;;;2.53;;
59788;SDS011;47353;51.614;5.530;2022-09-09T11:43:59;7.53;;;2.10;;
59788;SDS011;47353;51.614;5.530;2022-09-09T11:46:32;6.70;;;2.08;;
59788;SDS011;47353;51.614;5.530;2022-09-09T11:49:02;7.05;;;2.03;;
59788;SDS011;47353;51.614;5.530;2022-09-09T11:51:30;3.90;;;1.90;;
59788;SDS011;47353;51.614;5.530;2022-09-09T11:54:44;4.43;;;2.10;;
59788;SDS011;47353;51.614;5.530;2022-09-09T11:56:56;4.93;;;2.05;;
59788;SDS011;47353;51.614;5.530;2022-09-09T12:01:55;6.78;;;1.90;;
59788;SDS011;47353;51.614;5.530;2022-09-09T12:04:43;6.60;;;2.15;;
59788;SDS011;47353;51.614;5.530;2022-09-09T12:07:50;5.18;;;1.83;;
59788;SDS011;47353;51.614;5.530;2022-09-09T12:12:46;4.93;;;2.08;;
59788;SDS011;47353;51.614;5.530;2022-09-09T12:17:47;5.90;;;1.90;;
59788;SDS011;47353;51.614;5.530;2022-09-09T12:28:42;4.70;;;2.00;;
59788;SDS011;47353;51.614;5.530;2022-09-09T12:34:30;7.82;;;1.80;;
59788;SDS011;47353;51.614;5.530;2022-09-09T12:37:06;5.72;;;1.77;;
59788;SDS011;47353;51.614;5.530;2022-09-09T12:39:51;5.75;;;1.92;;
59788;SDS011;47353;51.614;5.530;2022-09-09T12:42:44;6.47;;;2.20;;
59788;SDS011;47353;51.614;5.530;2022-09-09T12:48:06;6.05;;;1.75;;
59788;SDS011;47353;51.614;5.530;2022-09-09T12:50:37;7.45;;;1.67;;
59788;SDS011;47353;51.614;5.530;2022-09-09T12:53:10;6.40;;;1.65;;
59788;SDS011;47353;51.614;5.530;2022-09-09T12:56:01;3.55;;;1.60;;
59788;SDS011;47353;51.614;5.530;2022-09-09T12:58:31;5.68;;;2.00;;
59788;SDS011;47353;51.614;5.530;2022-09-09T13:00:59;6.32;;;1.95;;
59788;SDS011;47353;51.614;5.530;2022-09-09T13:03:29;5.30;;;2.20;;
59788;SDS011;47353;51.614;5.530;2022-09-09T13:06:10;6.65;;;2.08;;
59788;SDS011;47353;51.614;5.530;2022-09-09T13:08:39;5.90;;;2.30;;
59788;SDS011;47353;51.614;5.530;2022-09-09T13:11:10;6.47;;;2.10;;
59788;SDS011;47353;51.614;5.530;2022-09-09T13:13:42;8.93;;;2.17;;
59788;SDS011;47353;51.614;5.530;2022-09-09T13:16:19;11.48;;;2.65;;
59788;SDS011;47353;51.614;5.530;2022-09-09T13:18:56;10.40;;;2.95;;
59788;SDS011;47353;51.614;5.530;2022-09-09T13:21:57;8.05;;;2.75;;
59788;SDS011;47353;51.614;5.530;2022-09-09T13:24:22;7.43;;;2.88;;
59788;SDS011;47353;51.614;5.530;2022-09-09T13:29:22;8.60;;;3.03;;
59788;SDS011;47353;51.614;5.530;2022-09-09T13:31:48;5.80;;;2.30;;
59788;SDS011;47353;51.614;5.530;2022-09-09T13:36:58;6.60;;;2.25;;
59788;SDS011;47353;51.614;5.530;2022-09-09T13:39:30;7.75;;;2.40;;
59788;SDS011;47353;51.614;5.530;2022-09-09T13:41:59;7.05;;;2.28;;
59788;SDS011;47353;51.614;5.530;2022-09-09T13:44:31;5.68;;;1.83;;
59788;SDS011;47353;51.614;5.530;2022-09-09T13:47:04;5.07;;;1.48;;
59788;SDS011;47353;51.614;5.530;2022-09-09T13:49:31;4.07;;;1.40;;
59788;SDS011;47353;51.614;5.530;2022-09-09T13:52:11;4.13;;;1.52;;
59788;SDS011;47353;51.614;5.530;2022-09-09T13:54:46;6.40;;;1.70;;
59788;SDS011;47353;51.614;5.530;2022-09-09T13:57:14;5.93;;;2.10;;
59788;SDS011;47353;51.614;5.530;2022-09-09T13:59:45;7.30;;;2.03;;
59788;SDS011;47353;51.614;5.530;2022-09-09T14:02:11;4.50;;;1.60;;
59788;SDS011;47353;51.614;5.530;2022-09-09T14:04:36;5.60;;;1.80;;
59788;SDS011;47353;51.614;5.530;2022-09-09T14:07:02;4.50;;;1.60;;
59788;SDS011;47353;51.614;5.530;2022-09-09T14:09:28;2.85;;;1.33;;
59788;SDS011;47353;51.614;5.530;2022-09-09T14:11:54;4.60;;;1.90;;
59788;SDS011;47353;51.614;5.530;2022-09-09T14:14:22;5.28;;;1.63;;
59788;SDS011;47353;51.614;5.530;2022-09-09T14:16:48;4.63;;;1.23;;
59788;SDS011;47353;51.614;5.530;2022-09-09T14:19:13;4.72;;;1.60;;
59788;SDS011;47353;51.614;5.530;2022-09-09T14:21:39;3.95;;;1.60;;
59788;SDS011;47353;51.614;5.530;2022-09-09T14:24:04;3.65;;;1.45;;
59788;SDS011;47353;51.614;5.530;2022-09-09T14:26:30;4.05;;;1.60;;
59788;SDS011;47353;51.614;5.530;2022-09-09T14:28:56;4.80;;;1.60;;
59788;SDS011;47353;51.614;5.530;2022-09-09T14:31:22;5.10;;;1.60;;
59788;SDS011;47353;51.614;5.530;2022-09-09T14:33:48;4.03;;;1.20;;
59788;SDS011;47353;51.614;5.530;2022-09-09T14:36:13;4.88;;;1.60;;
59788;SDS011;47353;51.614;5.530;2022-09-09T14:38:40;4.45;;;1.70;;
59788;SDS011;47353;51.614;5.530;2022-09-09T14:41:06;4.22;;;1.25;;
59788;SDS011;47353;51.614;5.530;2022-09-09T14:43:34;6.35;;;1.50;;
59788;SDS011;47353;51.614;5.530;2022-09-09T14:46:06;2.78;;;1.55;;
59788;SDS011;47353;51.614;5.530;2022-09-09T14:48:35;5.43;;;1.40;;
59788;SDS011;47353;51.614;5.530;2022-09-09T14:51:05;5.75;;;1.52;;
59788;SDS011;47353;51.614;5.530;2022-09-09T14:53:31;5.93;;;1.98;;
59788;SDS011;47353;51.614;5.530;2022-09-09T14:56:04;5.47;;;1.50;;
59788;SDS011;47353;51.614;5.530;2022-09-09T14:58:33;5.40;;;1.70;;
59788;SDS011;47353;51.614;5.530;2022-09-09T15:01:18;6.78;;;1.88;;
59788;SDS011;47353;51.614;5.530;2022-09-09T15:03:49;4.50;;;1.55;;
59788;SDS011;47353;51.614;5.530;2022-09-09T15:06:16;3.55;;;1.60;;
59788;SDS011;47353;51.614;5.530;2022-09-09T15:08:42;4.00;;;1.80;;
59788;SDS011;47353;51.614;5.530;2022-09-09T15:11:09;6.03;;;1.63;;
59788;SDS011;47353;51.614;5.530;2022-09-09T15:13:37;5.38;;;1.70;;
59788;SDS011;47353;51.614;5.530;2022-09-09T15:16:07;8.27;;;1.73;;
59788;SDS011;47353;51.614;5.530;2022-09-09T15:18:40;3.40;;;1.70;;
59788;SDS011;47353;51.614;5.530;2022-09-09T15:21:14;3.60;;;1.63;;
59788;SDS011;47353;51.614;5.530;2022-09-09T15:23:42;8.32;;;3.53;;
59788;SDS011;47353;51.614;5.530;2022-09-09T15:26:08;9.82;;;4.15;;
59788;SDS011;47353;51.614;5.530;2022-09-09T15:28:35;13.00;;;3.40;;
59788;SDS011;47353;51.614;5.530;2022-09-09T15:31:09;8.95;;;2.55;;
59788;SDS011;47353;51.614;5.530;2022-09-09T15:33:39;4.47;;;2.40;;
59788;SDS011;47353;51.614;5.530;2022-09-09T15:38:41;3.38;;;1.33;;
59788;SDS011;47353;51.614;5.530;2022-09-09T15:41:07;4.38;;;1.92;;
59788;SDS011;47353;51.614;5.530;2022-09-09T15:43:32;3.80;;;1.60;;
59788;SDS011;47353;51.614;5.530;2022-09-09T15:45:59;2.30;;;1.67;;
59788;SDS011;47353;51.614;5.530;2022-09-09T15:48:49;4.20;;;1.98;;
59788;SDS011;47353;51.614;5.530;2022-09-09T15:51:15;3.90;;;1.77;;
59788;SDS011;47353;51.614;5.530;2022-09-09T15:53:40;2.88;;;1.73;;
59788;SDS011;47353;51.614;5.530;2022-09-09T15:56:06;3.75;;;2.20;;
59788;SDS011;47353;51.614;5.530;2022-09-09T15:58:32;5.82;;;1.90;;
59788;SDS011;47353;51.614;5.530;2022-09-09T16:01:07;2.50;;;1.60;;
59788;SDS011;47353;51.614;5.530;2022-09-09T16:03:34;3.08;;;1.70;;
59788;SDS011;47353;51.614;5.530;2022-09-09T16:06:04;3.05;;;1.73;;
59788;SDS011;47353;51.614;5.530;2022-09-09T16:08:31;1.63;;;1.27;;
59788;SDS011;47353;51.614;5.530;2022-09-09T16:11:03;3.92;;;1.50;;
59788;SDS011;47353;51.614;5.530;2022-09-09T16:13:44;1.83;;;1.40;;
59788;SDS011;47353;51.614;5.530;2022-09-09T16:16:11;3.47;;;1.65;;
59788;SDS011;47353;51.614;5.530;2022-09-09T16:18:40;3.47;;;1.70;;
59788;SDS011;47353;51.614;5.530;2022-09-09T16:21:14;3.50;;;1.80;;
59788;SDS011;47353;51.614;5.530;2022-09-09T16:23:42;7.10;;;4.68;;
59788;SDS011;47353;51.614;5.530;2022-09-09T16:26:08;2.08;;;1.88;;
59788;SDS011;47353;51.614;5.530;2022-09-09T16:28:36;3.83;;;2.03;;
59788;SDS011;47353;51.614;5.530;2022-09-09T16:31:05;4.93;;;1.90;;
59788;SDS011;47353;51.614;5.530;2022-09-09T16:33:35;4.50;;;2.13;;
59788;SDS011;47353;51.614;5.530;2022-09-09T16:36:44;5.00;;;2.10;;
59788;SDS011;47353;51.614;5.530;2022-09-09T16:38:55;3.53;;;1.80;;
59788;SDS011;47353;51.614;5.530;2022-09-09T16:41:24;3.17;;;1.97;;
59788;SDS011;47353;51.614;5.530;2022-09-09T16:43:56;3.45;;;2.30;;
59788;SDS011;47353;51.614;5.530;2022-09-09T16:46:24;4.40;;;2.35;;
59788;SDS011;47353;51.614;5.530;2022-09-09T16:48:52;5.28;;;2.60;;
59788;SDS011;47353;51.614;5.530;2022-09-09T16:51:24;4.53;;;2.38;;
59788;SDS011;47353;51.614;5.530;2022-09-09T16:53:51;3.33;;;2.53;;
59788;SDS011;47353;51.614;5.530;2022-09-09T16:56:19;4.80;;;2.55;;
59788;SDS011;47353;51.614;5.530;2022-09-09T16:59:00;5.65;;;2.85;;
59788;SDS011;47353;51.614;5.530;2022-09-09T17:01:28;5.72;;;3.08;;
59788;SDS011;47353;51.614;5.530;2022-09-09T17:03:56;4.13;;;3.17;;
59788;SDS011;47353;51.614;5.530;2022-09-09T17:06:23;7.70;;;3.30;;
59788;SDS011;47353;51.614;5.530;2022-09-09T17:08:53;6.32;;;3.55;;
59788;SDS011;47353;51.614;5.530;2022-09-09T17:11:19;4.72;;;4.00;;
59788;SDS011;47353;51.614;5.530;2022-09-09T17:13:46;7.15;;;4.20;;
59788;SDS011;47353;51.614;5.530;2022-09-09T17:16:13;7.43;;;4.35;;
59788;SDS011;47353;51.614;5.530;2022-09-09T17:18:40;6.63;;;3.90;;
59788;SDS011;47353;51.614;5.530;2022-09-09T17:21:07;4.93;;;3.72;;
59788;SDS011;47353;51.614;5.530;2022-09-09T17:23:35;5.13;;;3.63;;
59788;SDS011;47353;51.614;5.530;2022-09-09T17:26:03;5.50;;;3.42;;
59788;SDS011;47353;51.614;5.530;2022-09-09T17:28:30;7.38;;;3.30;;
59788;SDS011;47353;51.614;5.530;2022-09-09T17:30:57;3.13;;;2.75;;
59788;SDS011;47353;51.614;5.530;2022-09-09T17:33:26;5.20;;;3.15;;
59788;SDS011;47353;51.614;5.530;2022-09-09T17:35:53;2.63;;;2.30;;